createdAt,value
2019-04-29T00:01:22.830Z,9.60
2019-04-29T00:03:50.678Z,9.50
2019-04-29T00:06:18.499Z,9.60
2019-04-29T00:08:46.283Z,9.50
2019-04-29T00:11:14.079Z,9.50
2019-04-29T00:13:42.043Z,9.60
2019-04-29T00:16:23.666Z,9.60
2019-04-29T00:19:10.635Z,9.60
2019-04-29T00:21:38.787Z,9.60
2019-04-29T00:24:06.591Z,9.70
2019-04-29T00:26:34.540Z,9.70
2019-04-29T00:29:02.422Z,9.70
2019-04-29T00:31:30.302Z,9.70
2019-04-29T00:33:58.183Z,9.70
2019-04-29T00:36:28.930Z,9.70
2019-04-29T00:39:14.753Z,9.70
2019-04-29T00:41:56.019Z,9.70
2019-04-29T00:44:23.908Z,9.60
2019-04-29T00:46:51.675Z,9.60
2019-04-29T00:49:19.473Z,9.60
2019-04-29T00:51:47.243Z,9.60
2019-04-29T00:54:25.287Z,9.60
2019-04-29T00:56:53.110Z,9.50
2019-04-29T00:59:20.993Z,9.50
2019-04-29T01:01:48.879Z,9.40
2019-04-29T01:04:16.723Z,9.40
2019-04-29T01:06:44.500Z,9.40
2019-04-29T01:09:14.081Z,9.40
2019-04-29T01:11:42.201Z,9.50
2019-04-29T01:14:10.200Z,9.40
2019-04-29T01:16:37.986Z,9.40
2019-04-29T01:19:05.800Z,9.40
2019-04-29T01:21:33.635Z,9.50
2019-04-29T01:24:01.405Z,9.40
2019-04-29T01:26:47.340Z,9.40
2019-04-29T01:29:15.879Z,9.40
2019-04-29T01:31:43.637Z,9.40
2019-04-29T01:34:22.400Z,9.40
2019-04-29T01:36:50.232Z,9.40
2019-04-29T01:39:18.105Z,9.30
2019-04-29T01:41:51.964Z,9.30
2019-04-29T01:44:19.788Z,9.20
2019-04-29T01:46:47.622Z,9.20
2019-04-29T01:49:15.515Z,9.10
2019-04-29T01:51:43.358Z,9.10
2019-04-29T01:54:11.201Z,9.10
2019-04-29T01:56:38.987Z,9.00
2019-04-29T01:59:06.854Z,9.00
2019-04-29T02:01:34.742Z,9.00
2019-04-29T02:04:02.594Z,9.00
2019-04-29T02:06:30.651Z,9.00
2019-04-29T02:08:58.591Z,8.90
2019-04-29T02:11:26.502Z,8.90
2019-04-29T02:13:54.259Z,8.80
2019-04-29T02:16:22.154Z,8.90
2019-04-29T02:18:50.015Z,8.80
2019-04-29T02:21:17.785Z,8.80
2019-04-29T02:24:00.551Z,8.80
2019-04-29T02:26:28.368Z,8.70
2019-04-29T02:28:56.135Z,8.70
2019-04-29T02:31:40.388Z,8.70
2019-04-29T02:34:08.672Z,8.60
2019-04-29T02:36:36.569Z,8.60
2019-04-29T02:39:26.223Z,8.60
2019-04-29T02:42:21.251Z,8.60
2019-04-29T02:44:49.397Z,8.60
2019-04-29T02:47:17.215Z,8.60
2019-04-29T02:49:44.978Z,8.60
2019-04-29T02:52:13.135Z,8.60
2019-04-29T02:54:41.175Z,8.60
2019-04-29T02:57:20.633Z,8.60
2019-04-29T02:59:50.578Z,8.60
2019-04-29T03:02:31.528Z,8.60
2019-04-29T03:05:11.008Z,8.60
2019-04-29T03:07:38.983Z,8.60
2019-04-29T03:10:06.946Z,8.50
2019-04-29T03:12:34.774Z,8.60
2019-04-29T03:15:02.587Z,8.60
2019-04-29T03:17:30.508Z,8.60
2019-04-29T03:20:12.280Z,8.60
2019-04-29T03:22:40.855Z,8.60
2019-04-29T03:25:08.876Z,8.60
2019-04-29T03:27:36.698Z,8.50
2019-04-29T03:30:05.114Z,8.60
2019-04-29T03:32:32.998Z,8.60
2019-04-29T03:35:00.799Z,8.60
2019-04-29T03:37:28.635Z,8.60
2019-04-29T03:39:56.402Z,8.60
2019-04-29T03:42:24.206Z,8.60
2019-04-29T03:44:54.439Z,8.60
2019-04-29T03:47:23.051Z,8.60
2019-04-29T03:49:50.825Z,8.50
2019-04-29T03:52:18.631Z,8.50
2019-04-29T03:54:46.770Z,8.60
2019-04-29T03:57:15.748Z,8.60
2019-04-29T03:59:43.599Z,8.60
2019-04-29T04:02:36.348Z,8.50
2019-04-29T04:05:23.078Z,8.60
2019-04-29T04:07:55.151Z,8.50
2019-04-29T04:10:23.022Z,8.50
2019-04-29T04:12:50.795Z,8.60
2019-04-29T04:15:18.550Z,8.60
2019-04-29T04:18:17.612Z,8.70
2019-04-29T04:20:45.396Z,8.70
2019-04-29T04:23:13.244Z,8.70
2019-04-29T04:25:41.078Z,8.70
2019-04-29T04:28:09.051Z,8.70
2019-04-29T04:30:37.697Z,8.70
2019-04-29T04:33:05.479Z,8.70
2019-04-29T04:35:33.263Z,8.70
2019-04-29T04:38:01.043Z,8.70
2019-04-29T04:40:33.774Z,8.70
2019-04-29T04:43:01.901Z,8.80
2019-04-29T04:45:29.734Z,8.80
2019-04-29T04:47:57.510Z,8.80
2019-04-29T04:50:25.322Z,8.80
2019-04-29T04:52:53.088Z,8.80
2019-04-29T04:55:22.615Z,8.80
2019-04-29T04:57:50.574Z,8.80
2019-04-29T05:00:21.564Z,8.80
2019-04-29T05:02:49.408Z,8.90
2019-04-29T05:05:17.294Z,8.90
2019-04-29T05:07:45.157Z,8.90
2019-04-29T05:10:13.098Z,8.90
2019-04-29T05:12:40.895Z,8.90
2019-04-29T05:15:08.859Z,9.00
2019-04-29T05:17:36.623Z,9.00
2019-04-29T05:20:04.527Z,9.00
2019-04-29T05:22:32.300Z,9.00
2019-04-29T05:25:00.151Z,9.00
2019-04-29T05:27:27.934Z,9.10
2019-04-29T05:29:55.706Z,9.10
2019-04-29T05:32:23.532Z,9.10
2019-04-29T05:34:55.034Z,9.10
2019-04-29T05:37:49.250Z,9.20
2019-04-29T05:40:36.976Z,9.20
2019-04-29T05:43:05.194Z,9.20
2019-04-29T05:45:41.504Z,9.20
2019-04-29T05:48:12.074Z,9.20
2019-04-29T05:50:59.459Z,9.20
2019-04-29T05:53:30.638Z,9.20
2019-04-29T05:55:58.519Z,9.30
2019-04-29T05:58:26.390Z,9.30
2019-04-29T06:01:00.894Z,9.20
2019-04-29T06:03:29.266Z,9.20
2019-04-29T06:05:57.416Z,9.20
2019-04-29T06:08:25.299Z,9.20
2019-04-29T06:10:53.103Z,9.10
2019-04-29T06:13:21.042Z,9.10
2019-04-29T06:15:48.853Z,9.10
2019-04-29T06:18:17.650Z,9.10
2019-04-29T06:20:46.199Z,9.10
2019-04-29T06:23:13.962Z,9.10
2019-04-29T06:25:41.854Z,9.10
2019-04-29T06:28:09.685Z,9.20
2019-04-29T06:30:40.608Z,9.20
2019-04-29T06:33:07.562Z,9.20
2019-04-29T06:35:35.359Z,9.20
2019-04-29T06:38:03.263Z,9.20
2019-04-29T06:40:35.432Z,9.20
2019-04-29T06:43:00.686Z,9.20
2019-04-29T06:45:28.575Z,9.10
2019-04-29T06:47:56.843Z,9.20
2019-04-29T06:50:24.870Z,9.20
2019-04-29T06:52:52.679Z,9.20
2019-04-29T06:55:20.555Z,9.30
2019-04-29T06:57:48.425Z,9.30
2019-04-29T07:00:17.539Z,9.30
2019-04-29T07:02:49.957Z,9.20
2019-04-29T07:05:15.490Z,9.20
2019-04-29T07:07:43.387Z,9.30
2019-04-29T07:10:11.225Z,9.30
2019-04-29T07:12:42.716Z,9.30
2019-04-29T07:15:12.289Z,9.40
2019-04-29T07:17:41.214Z,9.40
2019-04-29T07:20:08.098Z,9.40
2019-04-29T07:22:35.882Z,9.50
2019-04-29T07:25:03.839Z,9.50
2019-04-29T07:27:34.442Z,9.50
2019-04-29T07:30:01.701Z,9.50
2019-04-29T07:32:32.457Z,9.50
2019-04-29T07:35:00.371Z,9.60
2019-04-29T07:37:29.690Z,9.70
2019-04-29T07:39:57.643Z,9.70
2019-04-29T07:42:32.030Z,9.80
2019-04-29T07:45:12.872Z,9.80
2019-04-29T07:47:41.342Z,9.80
2019-04-29T07:50:09.415Z,9.80
2019-04-29T07:52:37.418Z,9.80
2019-04-29T07:55:05.367Z,9.80
2019-04-29T07:57:33.146Z,9.70
2019-04-29T08:00:00.914Z,9.70
2019-04-29T08:02:28.844Z,9.70
2019-04-29T08:04:56.615Z,9.70
2019-04-29T08:07:25.405Z,9.70
2019-04-29T08:09:53.438Z,9.70
2019-04-29T08:12:21.654Z,9.60
2019-04-29T08:14:53.524Z,9.60
2019-04-29T08:17:19.593Z,9.50
2019-04-29T08:19:47.388Z,9.50
2019-04-29T08:22:18.100Z,9.60
2019-04-29T08:24:45.977Z,9.50
2019-04-29T08:27:14.155Z,9.50
2019-04-29T08:29:41.938Z,9.50
2019-04-29T08:32:09.760Z,9.60
2019-04-29T08:34:40.629Z,9.60
2019-04-29T08:37:07.139Z,9.60
2019-04-29T08:39:34.914Z,9.70
2019-04-29T08:42:08.972Z,9.70
2019-04-29T08:44:59.763Z,9.70
2019-04-29T08:47:31.567Z,9.70
2019-04-29T08:49:58.458Z,9.70
2019-04-29T08:52:26.222Z,9.60
2019-04-29T08:54:55.400Z,9.60
2019-04-29T08:57:23.658Z,9.60
2019-04-29T08:59:51.470Z,9.60
2019-04-29T09:02:33.434Z,9.80
2019-04-29T09:04:53.742Z,9.80
2019-04-29T09:07:22.139Z,9.90
2019-04-29T09:09:48.527Z,9.90
2019-04-29T09:12:19.285Z,10.00
2019-04-29T09:14:46.003Z,9.90
2019-04-29T09:17:20.560Z,9.90
2019-04-29T09:19:43.394Z,10.00
2019-04-29T09:22:13.434Z,10.10
2019-04-29T09:25:00.439Z,10.20
2019-04-29T09:27:28.210Z,10.20
2019-04-29T09:29:58.720Z,10.30
2019-04-29T09:32:25.568Z,10.40
2019-04-29T09:34:55.497Z,10.40
2019-04-29T09:37:24.491Z,10.40
2019-04-29T09:39:52.435Z,10.40
2019-04-29T09:42:40.815Z,10.30
2019-04-29T09:45:19.501Z,10.30
2019-04-29T09:47:46.921Z,10.30
2019-04-29T09:50:14.785Z,10.30
2019-04-29T09:52:42.551Z,10.40
2019-04-29T09:55:10.347Z,10.50
2019-04-29T09:57:38.114Z,10.40
2019-04-29T10:00:15.558Z,10.40
2019-04-29T10:02:50.521Z,10.30
2019-04-29T10:05:29.775Z,10.40
2019-04-29T10:07:57.646Z,10.40
2019-04-29T10:10:25.447Z,10.30
2019-04-29T10:12:54.113Z,10.30
2019-04-29T10:15:28.567Z,10.30
2019-04-29T10:18:01.611Z,10.40
2019-04-29T10:20:43.803Z,10.30
2019-04-29T10:23:11.608Z,10.30
2019-04-29T10:25:39.383Z,10.50
2019-04-29T10:28:07.230Z,10.50
2019-04-29T10:30:34.995Z,10.60
2019-04-29T10:33:02.936Z,10.70
2019-04-29T10:35:30.702Z,10.80
2019-04-29T10:38:02.944Z,10.80
2019-04-29T10:40:35.816Z,10.80
2019-04-29T10:43:15.564Z,10.90
2019-04-29T10:46:00.314Z,10.80
2019-04-29T10:48:39.442Z,10.90
2019-04-29T10:51:09.019Z,10.80
2019-04-29T10:53:36.806Z,10.90
2019-04-29T10:56:05.652Z,11.00
2019-04-29T10:58:35.610Z,11.10
2019-04-29T11:01:36.147Z,11.20
2019-04-29T11:04:04.205Z,11.30
2019-04-29T11:06:35.823Z,11.40
2019-04-29T11:09:23.764Z,11.40
2019-04-29T11:11:52.118Z,11.40
2019-04-29T11:14:19.906Z,11.40
2019-04-29T11:16:48.224Z,11.30
2019-04-29T11:19:16.087Z,11.30
2019-04-29T11:21:43.914Z,11.30
2019-04-29T11:24:18.711Z,11.40
2019-04-29T11:27:11.206Z,11.60
2019-04-29T11:29:29.218Z,11.60
2019-04-29T11:31:58.761Z,11.60
2019-04-29T11:34:42.357Z,11.70
2019-04-29T11:37:13.752Z,11.70
2019-04-29T11:39:41.621Z,11.90
2019-04-29T11:42:09.776Z,12.00
2019-04-29T11:44:37.715Z,12.10
2019-04-29T11:47:05.601Z,12.20
2019-04-29T11:49:39.478Z,12.30
2019-04-29T11:52:09.647Z,12.20
2019-04-29T11:54:36.915Z,12.20
2019-04-29T11:57:06.386Z,12.20
2019-04-29T11:59:44.454Z,12.30
2019-04-29T12:02:44.568Z,12.40
2019-04-29T12:05:04.231Z,12.60
2019-04-29T12:07:32.497Z,12.70
2019-04-29T12:10:02.285Z,13.00
2019-04-29T12:12:30.581Z,13.20
2019-04-29T12:15:16.738Z,13.10
2019-04-29T12:17:57.877Z,13.20
2019-04-29T12:20:35.014Z,13.20
2019-04-29T12:23:02.790Z,13.30
2019-04-29T12:25:30.653Z,13.30
2019-04-29T12:28:01.488Z,13.50
2019-04-29T12:30:34.707Z,13.70
2019-04-29T12:33:06.534Z,14.00
2019-04-29T12:35:51.712Z,14.20
2019-04-29T12:38:39.648Z,14.10
2019-04-29T12:41:21.362Z,14.10
2019-04-29T12:43:59.562Z,14.20
2019-04-29T12:46:35.270Z,14.10
2019-04-29T12:49:03.470Z,14.20
2019-04-29T12:51:32.609Z,14.10
2019-04-29T12:54:00.467Z,14.30
2019-04-29T12:56:32.837Z,14.60
2019-04-29T12:59:01.855Z,14.80
2019-04-29T13:01:51.443Z,15.00
2019-04-29T13:04:28.898Z,15.00
2019-04-29T13:07:09.459Z,15.00
2019-04-29T13:09:40.611Z,15.10
2019-04-29T13:12:19.177Z,15.20
2019-04-29T13:14:44.462Z,15.10
2019-04-29T13:17:21.159Z,15.20
2019-04-29T13:20:01.723Z,15.30
2019-04-29T13:22:24.394Z,15.30
2019-04-29T13:24:52.298Z,15.10
2019-04-29T13:27:20.848Z,15.20
2019-04-29T13:29:49.884Z,15.40
2019-04-29T13:32:17.683Z,15.70
2019-04-29T13:34:47.419Z,15.90
2019-04-29T13:37:19.020Z,16.10
2019-04-29T13:39:44.709Z,16.10
2019-04-29T13:42:15.635Z,16.10
2019-04-29T13:44:56.257Z,16.20
2019-04-29T13:47:28.433Z,16.40
2019-04-29T13:50:17.368Z,16.40
2019-04-29T13:52:28.341Z,16.30
2019-04-29T13:54:56.182Z,16.60
2019-04-29T13:57:23.957Z,17.10
2019-04-29T14:00:00.954Z,17.50
2019-04-29T14:02:36.836Z,17.80
2019-04-29T14:05:06.004Z,17.90
2019-04-29T14:07:33.871Z,17.90
2019-04-29T14:10:01.645Z,17.80
2019-04-29T14:15:00.292Z,17.90
2019-04-29T14:17:31.715Z,17.90
2019-04-29T14:19:58.214Z,18.00
2019-04-29T14:22:26.090Z,18.00
2019-04-29T14:24:53.849Z,17.80
2019-04-29T14:27:24.927Z,17.70
2019-04-29T14:29:51.643Z,17.80
2019-04-29T14:32:32.879Z,17.90
2019-04-29T14:34:57.802Z,18.00
2019-04-29T14:37:25.720Z,18.10
2019-04-29T14:39:53.630Z,18.00
2019-04-29T14:42:30.254Z,18.30
2019-04-29T14:45:16.533Z,18.50
2019-04-29T14:48:10.694Z,18.80
2019-04-29T14:50:38.849Z,18.60
2019-04-29T14:53:06.638Z,18.80
2019-04-29T14:55:34.416Z,18.60
2019-04-29T14:58:02.203Z,18.60
2019-04-29T15:00:52.089Z,18.60
2019-04-29T15:03:21.054Z,18.50
2019-04-29T15:05:48.870Z,18.50
2019-04-29T15:08:16.851Z,18.60
2019-04-29T15:10:46.444Z,18.90
2019-04-29T15:13:21.285Z,19.10
2019-04-29T15:16:15.573Z,19.20
2019-04-29T15:18:50.541Z,19.30
2019-04-29T15:21:42.947Z,19.10
2019-04-29T15:24:05.546Z,19.00
2019-04-29T15:26:33.311Z,19.00
2019-04-29T15:29:01.098Z,19.10
2019-04-29T15:31:29.002Z,19.30
2019-04-29T15:33:56.798Z,19.30
2019-04-29T15:36:25.047Z,19.40
2019-04-29T15:39:08.591Z,19.70
2019-04-29T15:41:29.719Z,20.00
2019-04-29T15:44:06.042Z,20.20
2019-04-29T15:46:22.090Z,20.60
2019-04-29T15:48:49.964Z,20.80
2019-04-29T15:51:17.742Z,20.60
2019-04-29T15:53:45.559Z,21.00
2019-04-29T15:56:28.341Z,21.20
2019-04-29T15:58:43.899Z,21.50
2019-04-29T16:01:17.041Z,22.20
2019-04-29T16:03:41.599Z,23.10
2019-04-29T16:06:21.462Z,23.70
2019-04-29T16:08:58.179Z,23.70
2019-04-29T16:11:40.737Z,24.60
2019-04-29T16:14:12.714Z,25.20
2019-04-29T16:16:40.513Z,24.70
2019-04-29T16:19:10.256Z,25.50
2019-04-29T16:21:41.487Z,25.10
2019-04-29T16:24:25.000Z,24.60
2019-04-29T16:26:36.930Z,25.00
2019-04-29T16:31:34.245Z,25.70
2019-04-29T16:34:02.022Z,25.50
2019-04-29T16:36:29.814Z,26.10
2019-04-29T16:38:57.654Z,26.00
2019-04-29T16:41:38.125Z,26.30
2019-04-29T16:44:07.098Z,25.60
2019-04-29T16:46:37.656Z,25.30
2019-04-29T16:49:04.478Z,25.80
2019-04-29T16:51:32.277Z,26.70
2019-04-29T16:54:00.051Z,26.80
2019-04-29T16:56:27.986Z,25.70
2019-04-29T16:58:55.854Z,25.80
2019-04-29T17:01:23.756Z,25.70
2019-04-29T17:03:51.614Z,25.00
2019-04-29T17:06:19.598Z,24.90
2019-04-29T17:09:06.784Z,25.50
2019-04-29T17:11:35.755Z,25.70
2019-04-29T17:14:10.217Z,26.00
2019-04-29T17:16:33.225Z,25.20
2019-04-29T17:19:01.027Z,24.40
2019-04-29T17:21:28.906Z,24.80
2019-04-29T17:23:56.674Z,24.60
2019-04-29T17:26:28.761Z,24.70
2019-04-29T17:29:37.932Z,24.90
2019-04-29T17:32:15.000Z,25.10
2019-04-29T17:34:58.154Z,24.10
2019-04-29T17:35:15.774Z,25.40
2019-04-29T17:37:13.150Z,23.50
2019-04-29T17:39:41.006Z,23.00
2019-04-29T17:42:08.806Z,21.80
2019-04-29T17:44:46.386Z,21.30
2019-04-29T17:47:26.301Z,20.90
2019-04-29T17:50:02.212Z,21.10
2019-04-29T17:52:29.565Z,21.60
2019-04-29T17:55:18.312Z,21.20
2019-04-29T17:57:50.859Z,21.50
2019-04-29T18:00:44.228Z,21.10
2019-04-29T18:03:36.411Z,19.90
2019-04-29T18:06:09.780Z,18.80
2019-04-29T18:08:50.568Z,17.80
2019-04-29T18:11:18.578Z,17.40
2019-04-29T18:13:46.382Z,17.00
2019-04-29T18:16:19.921Z,16.20
2019-04-29T18:18:58.574Z,15.50
2019-04-29T18:22:02.074Z,14.80
2019-04-29T18:24:39.322Z,14.30
2019-04-29T18:27:10.154Z,13.60
2019-04-29T18:29:41.628Z,13.20
2019-04-29T18:32:08.023Z,13.00
2019-04-29T18:34:37.316Z,12.70
2019-04-29T18:37:06.460Z,12.60
2019-04-29T18:39:34.749Z,12.40
2019-04-29T18:42:04.966Z,12.30
2019-04-29T18:44:33.382Z,12.10
2019-04-29T18:47:01.243Z,12.00
2019-04-29T18:49:29.118Z,11.90
2019-04-29T18:51:57.918Z,11.80
2019-04-29T18:54:27.046Z,11.60
2019-04-29T18:56:55.877Z,11.50
2019-04-29T18:59:30.400Z,11.40
2019-04-29T19:01:54.813Z,11.30
2019-04-29T19:04:57.158Z,11.20
2019-04-29T19:07:25.815Z,11.10
2019-04-29T19:09:55.221Z,11.00
2019-04-29T19:12:23.234Z,10.90
2019-04-29T19:14:51.122Z,10.80
2019-04-29T19:17:21.586Z,10.70
2019-04-29T19:19:48.405Z,10.70
2019-04-29T19:22:16.245Z,10.60
2019-04-29T19:24:46.271Z,10.50
2019-04-29T19:27:15.010Z,10.40
2019-04-29T19:29:43.525Z,10.40
2019-04-29T19:32:12.305Z,10.30
2019-04-29T19:34:43.345Z,10.30
2019-04-29T19:37:09.800Z,10.20
2019-04-29T19:39:37.918Z,10.20
2019-04-29T19:42:05.769Z,10.10
2019-04-29T19:44:36.574Z,10.00
2019-04-29T19:47:03.213Z,10.00
2019-04-29T19:49:31.118Z,9.90
2019-04-29T19:51:58.887Z,9.80
2019-04-29T19:54:28.521Z,9.80
2019-04-29T19:57:03.212Z,9.70
2019-04-29T19:59:26.543Z,9.70
2019-04-29T20:02:02.112Z,9.60
2019-04-29T20:04:34.088Z,9.60
2019-04-29T20:07:07.336Z,9.50
2019-04-29T20:09:37.109Z,9.40
2019-04-29T20:12:11.402Z,9.40
2019-04-29T20:14:36.435Z,9.30
2019-04-29T20:17:32.360Z,9.30
2019-04-29T20:20:05.548Z,9.20
2019-04-29T20:22:37.024Z,9.20
2019-04-29T20:25:06.291Z,9.10
2019-04-29T20:27:37.184Z,9.00
2019-04-29T20:30:15.063Z,9.00
2019-04-29T20:32:33.258Z,8.90
2019-04-29T20:35:07.090Z,8.80
2019-04-29T20:37:30.925Z,8.70
2019-04-29T20:40:00.804Z,8.70
2019-04-29T20:42:28.671Z,8.60
2019-04-29T20:44:56.610Z,8.50
2019-04-29T20:47:37.226Z,8.50
2019-04-29T20:49:54.157Z,8.50
2019-04-29T20:52:47.559Z,8.40
2019-04-29T20:55:16.054Z,8.40
2019-04-29T20:57:47.919Z,8.40
2019-04-29T21:00:14.076Z,8.30
2019-04-29T21:02:42.207Z,8.30
2019-04-29T21:05:22.319Z,8.20
2019-04-29T21:07:39.929Z,8.20
2019-04-29T21:10:08.637Z,8.20
2019-04-29T21:12:55.886Z,8.10
2019-04-29T21:15:29.246Z,8.10
2019-04-29T21:17:58.593Z,8.00
2019-04-29T21:20:26.739Z,8.00
2019-04-29T21:22:59.316Z,8.00
2019-04-29T21:25:24.744Z,8.00
2019-04-29T21:28:00.728Z,7.90
2019-04-29T21:30:27.270Z,7.90
2019-04-29T21:32:53.235Z,7.90
2019-04-29T21:35:31.482Z,7.80
2019-04-29T21:38:22.394Z,7.70
2019-04-29T21:40:55.958Z,7.70
2019-04-29T21:43:26.361Z,7.70
2019-04-29T21:45:55.654Z,7.70
2019-04-29T21:48:33.061Z,7.60
2019-04-29T21:50:53.191Z,7.60
2019-04-29T21:53:20.998Z,7.60
2019-04-29T21:55:50.384Z,7.50
2019-04-29T21:58:18.187Z,7.50
2019-04-29T22:00:46.118Z,7.40
2019-04-29T22:03:15.444Z,7.40
2019-04-29T22:05:45.091Z,7.40
2019-04-29T22:08:16.223Z,7.40
2019-04-29T22:10:42.818Z,7.40
2019-04-29T22:13:10.618Z,7.30
2019-04-29T22:15:42.322Z,7.30
2019-04-29T22:18:14.114Z,7.30
2019-04-29T22:20:42.167Z,7.20
2019-04-29T22:23:12.968Z,7.20
2019-04-29T22:25:41.128Z,7.20
2019-04-29T22:28:10.715Z,7.10
2019-04-29T22:30:36.351Z,7.10
2019-04-29T22:33:05.240Z,7.00
2019-04-29T22:35:37.233Z,7.00
2019-04-29T22:38:02.794Z,7.00
2019-04-29T22:40:34.214Z,6.90
2019-04-29T22:43:28.302Z,6.90
2019-04-29T22:45:56.162Z,6.80
2019-04-29T22:48:24.990Z,6.80
2019-04-29T22:50:53.135Z,6.70
2019-04-29T22:53:20.939Z,6.70
2019-04-29T22:55:48.787Z,6.70
2019-04-29T22:58:16.680Z,6.60
2019-04-29T23:00:44.710Z,6.60
2019-04-29T23:03:12.514Z,6.60
2019-04-29T23:05:40.371Z,6.50
2019-04-29T23:08:08.250Z,6.50
2019-04-29T23:10:36.490Z,6.50
2019-04-29T23:13:06.000Z,6.50
2019-04-29T23:15:35.706Z,6.50
2019-04-29T23:18:06.944Z,6.40
2019-04-29T23:20:52.879Z,6.40
2019-04-29T23:23:29.136Z,6.40
2019-04-29T23:25:55.731Z,6.40
2019-04-29T23:28:26.924Z,6.30
2019-04-29T23:30:53.414Z,6.30
2019-04-29T23:33:23.090Z,6.20
2019-04-29T23:35:50.913Z,6.20
2019-04-29T23:38:18.795Z,6.20
2019-04-29T23:40:49.731Z,6.10
2019-04-29T23:43:19.917Z,6.10
2019-04-29T23:45:46.338Z,6.10
2019-04-29T23:48:14.154Z,6.00
2019-04-29T23:50:42.278Z,6.00
2019-04-29T23:53:10.093Z,6.00
2019-04-29T23:55:38.121Z,5.90
2019-04-29T23:58:32.722Z,6.00
